sensor_id;sensor_type;location;lat;lon;timestamp;P1;durP1;ratioP1;P2;durP2;ratioP2
79202;SDS011;68630;42.748;23.278;2024-03-08T00:01:10;2.95;;;2.25;;
79202;SDS011;68630;42.748;23.278;2024-03-08T00:03:40;2.92;;;2.10;;
79202;SDS011;68630;42.748;23.278;2024-03-08T00:06:12;3.70;;;2.17;;
79202;SDS011;68630;42.748;23.278;2024-03-08T00:08:43;3.15;;;1.80;;
79202;SDS011;68630;42.748;23.278;2024-03-08T00:11:16;2.47;;;1.90;;
79202;SDS011;68630;42.748;23.278;2024-03-08T00:13:47;3.42;;;2.10;;
79202;SDS011;68630;42.748;23.278;2024-03-08T00:16:14;2.70;;;1.98;;
79202;SDS011;68630;42.748;23.278;2024-03-08T00:18:47;3.42;;;2.27;;
79202;SDS011;68630;42.748;23.278;2024-03-08T00:21:16;3.17;;;2.00;;
79202;SDS011;68630;42.748;23.278;2024-03-08T00:23:44;5.33;;;2.20;;
79202;SDS011;68630;42.748;23.278;2024-03-08T00:26:13;5.15;;;2.60;;
79202;SDS011;68630;42.748;23.278;2024-03-08T00:28:44;4.62;;;2.02;;
79202;SDS011;68630;42.748;23.278;2024-03-08T00:31:14;5.60;;;2.22;;
79202;SDS011;68630;42.748;23.278;2024-03-08T00:33:49;3.05;;;2.15;;
79202;SDS011;68630;42.748;23.278;2024-03-08T00:36:30;4.08;;;2.47;;
79202;SDS011;68630;42.748;23.278;2024-03-08T00:38:59;4.20;;;2.52;;
79202;SDS011;68630;42.748;23.278;2024-03-08T00:41:34;3.52;;;2.20;;
79202;SDS011;68630;42.748;23.278;2024-03-08T00:46:44;4.62;;;2.45;;
79202;SDS011;68630;42.748;23.278;2024-03-08T00:49:18;3.58;;;2.37;;
79202;SDS011;68630;42.748;23.278;2024-03-08T00:51:47;3.52;;;2.00;;
79202;SDS011;68630;42.748;23.278;2024-03-08T00:54:17;3.92;;;2.33;;
79202;SDS011;68630;42.748;23.278;2024-03-08T00:56:50;2.52;;;1.90;;
79202;SDS011;68630;42.748;23.278;2024-03-08T00:59:40;2.65;;;1.95;;
79202;SDS011;68630;42.748;23.278;2024-03-08T01:02:15;5.70;;;1.90;;
79202;SDS011;68630;42.748;23.278;2024-03-08T01:04:48;2.35;;;1.55;;
79202;SDS011;68630;42.748;23.278;2024-03-08T01:07:19;3.35;;;1.80;;
79202;SDS011;68630;42.748;23.278;2024-03-08T01:09:54;2.70;;;1.72;;
79202;SDS011;68630;42.748;23.278;2024-03-08T01:12:27;4.15;;;1.82;;
79202;SDS011;68630;42.748;23.278;2024-03-08T01:14:55;5.50;;;1.87;;
79202;SDS011;68630;42.748;23.278;2024-03-08T01:17:30;3.27;;;1.85;;
79202;SDS011;68630;42.748;23.278;2024-03-08T01:19:59;7.47;;;2.08;;
79202;SDS011;68630;42.748;23.278;2024-03-08T01:22:31;2.85;;;1.30;;
79202;SDS011;68630;42.748;23.278;2024-03-08T01:25:03;2.33;;;1.70;;
79202;SDS011;68630;42.748;23.278;2024-03-08T01:27:35;2.60;;;1.90;;
79202;SDS011;68630;42.748;23.278;2024-03-08T01:30:06;3.45;;;1.65;;
79202;SDS011;68630;42.748;23.278;2024-03-08T01:32:35;3.30;;;1.50;;
79202;SDS011;68630;42.748;23.278;2024-03-08T01:35:03;2.62;;;1.40;;
79202;SDS011;68630;42.748;23.278;2024-03-08T01:40:53;2.75;;;1.30;;
79202;SDS011;68630;42.748;23.278;2024-03-08T01:43:26;2.30;;;1.45;;
79202;SDS011;68630;42.748;23.278;2024-03-08T01:49:19;4.03;;;1.72;;
79202;SDS011;68630;42.748;23.278;2024-03-08T01:51:50;3.65;;;1.60;;
79202;SDS011;68630;42.748;23.278;2024-03-08T01:54:23;2.45;;;1.62;;
79202;SDS011;68630;42.748;23.278;2024-03-08T01:56:53;2.17;;;1.35;;
79202;SDS011;68630;42.748;23.278;2024-03-08T01:59:20;2.50;;;1.70;;
79202;SDS011;68630;42.748;23.278;2024-03-08T02:01:50;2.02;;;1.45;;
79202;SDS011;68630;42.748;23.278;2024-03-08T02:04:17;2.15;;;1.52;;
79202;SDS011;68630;42.748;23.278;2024-03-08T02:06:47;2.50;;;1.50;;
79202;SDS011;68630;42.748;23.278;2024-03-08T02:09:16;3.20;;;1.55;;
79202;SDS011;68630;42.748;23.278;2024-03-08T02:11:45;2.62;;;1.40;;
79202;SDS011;68630;42.748;23.278;2024-03-08T02:14:16;1.95;;;1.30;;
79202;SDS011;68630;42.748;23.278;2024-03-08T02:16:44;2.05;;;1.30;;
79202;SDS011;68630;42.748;23.278;2024-03-08T02:19:17;1.12;;;1.00;;
79202;SDS011;68630;42.748;23.278;2024-03-08T02:21:45;2.00;;;1.40;;
79202;SDS011;68630;42.748;23.278;2024-03-08T02:24:17;1.72;;;1.30;;
79202;SDS011;68630;42.748;23.278;2024-03-08T02:26:44;2.08;;;1.40;;
79202;SDS011;68630;42.748;23.278;2024-03-08T02:29:12;2.85;;;1.50;;
79202;SDS011;68630;42.748;23.278;2024-03-08T02:31:43;1.70;;;1.25;;
79202;SDS011;68630;42.748;23.278;2024-03-08T02:34:14;3.30;;;1.52;;
79202;SDS011;68630;42.748;23.278;2024-03-08T02:36:41;3.80;;;2.05;;
79202;SDS011;68630;42.748;23.278;2024-03-08T02:39:12;1.90;;;1.40;;
79202;SDS011;68630;42.748;23.278;2024-03-08T02:41:41;2.70;;;1.80;;
79202;SDS011;68630;42.748;23.278;2024-03-08T02:44:09;2.12;;;1.47;;
79202;SDS011;68630;42.748;23.278;2024-03-08T02:46:37;2.50;;;1.60;;
79202;SDS011;68630;42.748;23.278;2024-03-08T02:49:06;2.47;;;1.65;;
79202;SDS011;68630;42.748;23.278;2024-03-08T02:51:34;2.85;;;1.65;;
79202;SDS011;68630;42.748;23.278;2024-03-08T02:54:04;2.42;;;1.50;;
79202;SDS011;68630;42.748;23.278;2024-03-08T02:56:36;2.52;;;1.55;;
79202;SDS011;68630;42.748;23.278;2024-03-08T02:59:10;4.05;;;1.90;;
79202;SDS011;68630;42.748;23.278;2024-03-08T03:01:40;2.98;;;1.82;;
79202;SDS011;68630;42.748;23.278;2024-03-08T03:04:08;2.75;;;1.60;;
79202;SDS011;68630;42.748;23.278;2024-03-08T03:06:37;3.65;;;1.95;;
79202;SDS011;68630;42.748;23.278;2024-03-08T03:09:05;4.00;;;1.62;;
79202;SDS011;68630;42.748;23.278;2024-03-08T03:11:37;2.52;;;1.55;;
79202;SDS011;68630;42.748;23.278;2024-03-08T03:14:06;3.42;;;1.50;;
79202;SDS011;68630;42.748;23.278;2024-03-08T03:16:38;2.33;;;1.37;;
79202;SDS011;68630;42.748;23.278;2024-03-08T03:19:08;1.62;;;1.15;;
79202;SDS011;68630;42.748;23.278;2024-03-08T03:21:36;2.40;;;1.27;;
79202;SDS011;68630;42.748;23.278;2024-03-08T03:24:06;1.17;;;1.02;;
79202;SDS011;68630;42.748;23.278;2024-03-08T03:26:36;3.85;;;1.22;;
79202;SDS011;68630;42.748;23.278;2024-03-08T03:29:07;2.50;;;1.20;;
79202;SDS011;68630;42.748;23.278;2024-03-08T03:31:36;4.95;;;1.42;;
79202;SDS011;68630;42.748;23.278;2024-03-08T03:34:06;3.75;;;1.50;;
79202;SDS011;68630;42.748;23.278;2024-03-08T03:36:34;3.37;;;1.72;;
79202;SDS011;68630;42.748;23.278;2024-03-08T03:39:06;7.40;;;2.12;;
79202;SDS011;68630;42.748;23.278;2024-03-08T03:44:18;2.08;;;1.37;;
79202;SDS011;68630;42.748;23.278;2024-03-08T03:46:45;2.00;;;1.25;;
79202;SDS011;68630;42.748;23.278;2024-03-08T03:49:18;2.90;;;1.40;;
79202;SDS011;68630;42.748;23.278;2024-03-08T03:51:47;2.62;;;1.52;;
79202;SDS011;68630;42.748;23.278;2024-03-08T03:54:14;2.08;;;1.35;;
79202;SDS011;68630;42.748;23.278;2024-03-08T03:56:49;1.32;;;1.12;;
79202;SDS011;68630;42.748;23.278;2024-03-08T03:59:23;1.95;;;1.20;;
79202;SDS011;68630;42.748;23.278;2024-03-08T04:01:53;2.77;;;1.37;;
79202;SDS011;68630;42.748;23.278;2024-03-08T04:04:37;1.98;;;1.42;;
79202;SDS011;68630;42.748;23.278;2024-03-08T04:07:08;2.42;;;1.60;;
79202;SDS011;68630;42.748;23.278;2024-03-08T04:09:44;1.57;;;1.20;;
79202;SDS011;68630;42.748;23.278;2024-03-08T04:12:22;3.15;;;1.80;;
79202;SDS011;68630;42.748;23.278;2024-03-08T04:14:57;3.25;;;1.40;;
79202;SDS011;68630;42.748;23.278;2024-03-08T04:17:27;2.37;;;1.60;;
79202;SDS011;68630;42.748;23.278;2024-03-08T04:20:00;2.27;;;1.65;;
79202;SDS011;68630;42.748;23.278;2024-03-08T04:22:44;4.22;;;1.65;;
79202;SDS011;68630;42.748;23.278;2024-03-08T04:25:20;4.47;;;2.40;;
79202;SDS011;68630;42.748;23.278;2024-03-08T04:27:55;4.20;;;2.25;;
79202;SDS011;68630;42.748;23.278;2024-03-08T04:30:25;5.33;;;2.52;;
79202;SDS011;68630;42.748;23.278;2024-03-08T04:33:01;5.33;;;2.15;;
79202;SDS011;68630;42.748;23.278;2024-03-08T04:35:40;3.52;;;2.20;;
79202;SDS011;68630;42.748;23.278;2024-03-08T04:38:21;4.80;;;2.17;;
79202;SDS011;68630;42.748;23.278;2024-03-08T04:40:55;3.77;;;2.12;;
79202;SDS011;68630;42.748;23.278;2024-03-08T04:43:24;5.35;;;2.85;;
79202;SDS011;68630;42.748;23.278;2024-03-08T04:48:57;4.00;;;2.55;;
79202;SDS011;68630;42.748;23.278;2024-03-08T04:51:28;5.17;;;2.77;;
79202;SDS011;68630;42.748;23.278;2024-03-08T04:54:00;5.83;;;2.85;;
79202;SDS011;68630;42.748;23.278;2024-03-08T04:56:34;8.78;;;3.00;;
79202;SDS011;68630;42.748;23.278;2024-03-08T04:59:10;6.92;;;3.40;;
79202;SDS011;68630;42.748;23.278;2024-03-08T05:02:02;7.97;;;3.17;;
79202;SDS011;68630;42.748;23.278;2024-03-08T05:04:37;6.47;;;3.67;;
79202;SDS011;68630;42.748;23.278;2024-03-08T05:07:18;5.30;;;3.40;;
79202;SDS011;68630;42.748;23.278;2024-03-08T05:09:55;13.50;;;3.98;;
79202;SDS011;68630;42.748;23.278;2024-03-08T05:12:46;6.22;;;3.50;;
79202;SDS011;68630;42.748;23.278;2024-03-08T05:15:38;5.90;;;3.35;;
79202;SDS011;68630;42.748;23.278;2024-03-08T05:18:20;9.00;;;3.80;;
79202;SDS011;68630;42.748;23.278;2024-03-08T05:28:45;8.05;;;4.05;;
79202;SDS011;68630;42.748;23.278;2024-03-08T05:31:20;9.83;;;4.95;;
79202;SDS011;68630;42.748;23.278;2024-03-08T05:34:00;10.35;;;5.03;;
79202;SDS011;68630;42.748;23.278;2024-03-08T05:36:29;8.20;;;4.95;;
79202;SDS011;68630;42.748;23.278;2024-03-08T05:38:57;10.08;;;4.53;;
79202;SDS011;68630;42.748;23.278;2024-03-08T05:41:36;9.30;;;4.95;;
79202;SDS011;68630;42.748;23.278;2024-03-08T05:44:03;8.70;;;4.97;;
79202;SDS011;68630;42.748;23.278;2024-03-08T05:46:31;12.82;;;5.97;;
79202;SDS011;68630;42.748;23.278;2024-03-08T05:49:03;11.25;;;5.50;;
79202;SDS011;68630;42.748;23.278;2024-03-08T05:51:42;11.97;;;6.33;;
79202;SDS011;68630;42.748;23.278;2024-03-08T05:54:23;10.88;;;5.40;;
79202;SDS011;68630;42.748;23.278;2024-03-08T05:56:57;9.43;;;5.83;;
79202;SDS011;68630;42.748;23.278;2024-03-08T05:59:28;9.78;;;5.37;;
79202;SDS011;68630;42.748;23.278;2024-03-08T06:01:58;13.88;;;5.87;;
79202;SDS011;68630;42.748;23.278;2024-03-08T06:04:30;10.95;;;5.20;;
79202;SDS011;68630;42.748;23.278;2024-03-08T06:07:02;14.78;;;5.53;;
79202;SDS011;68630;42.748;23.278;2024-03-08T06:09:38;12.50;;;5.70;;
79202;SDS011;68630;42.748;23.278;2024-03-08T06:12:07;10.35;;;5.70;;
79202;SDS011;68630;42.748;23.278;2024-03-08T06:14:36;17.07;;;5.70;;
79202;SDS011;68630;42.748;23.278;2024-03-08T06:17:04;18.00;;;5.87;;
79202;SDS011;68630;42.748;23.278;2024-03-08T06:19:34;10.15;;;5.92;;
79202;SDS011;68630;42.748;23.278;2024-03-08T06:22:01;10.38;;;5.70;;
79202;SDS011;68630;42.748;23.278;2024-03-08T06:24:32;10.48;;;4.70;;
79202;SDS011;68630;42.748;23.278;2024-03-08T06:27:01;10.40;;;5.20;;
79202;SDS011;68630;42.748;23.278;2024-03-08T06:29:35;16.05;;;6.28;;
79202;SDS011;68630;42.748;23.278;2024-03-08T06:32:16;20.27;;;6.35;;
79202;SDS011;68630;42.748;23.278;2024-03-08T06:34:51;15.80;;;6.40;;
79202;SDS011;68630;42.748;23.278;2024-03-08T06:37:25;19.60;;;7.12;;
79202;SDS011;68630;42.748;23.278;2024-03-08T06:40:01;17.00;;;7.05;;
79202;SDS011;68630;42.748;23.278;2024-03-08T06:42:38;26.15;;;6.97;;
79202;SDS011;68630;42.748;23.278;2024-03-08T06:45:12;18.95;;;6.30;;
79202;SDS011;68630;42.748;23.278;2024-03-08T06:47:42;13.28;;;6.15;;
79202;SDS011;68630;42.748;23.278;2024-03-08T06:50:15;9.15;;;5.00;;
79202;SDS011;68630;42.748;23.278;2024-03-08T06:52:46;9.05;;;5.42;;
79202;SDS011;68630;42.748;23.278;2024-03-08T06:55:20;15.30;;;5.47;;
79202;SDS011;68630;42.748;23.278;2024-03-08T06:58:00;25.90;;;6.40;;
79202;SDS011;68630;42.748;23.278;2024-03-08T07:00:28;32.13;;;6.45;;
79202;SDS011;68630;42.748;23.278;2024-03-08T07:03:11;16.60;;;6.37;;
79202;SDS011;68630;42.748;23.278;2024-03-08T07:05:41;16.90;;;6.10;;
79202;SDS011;68630;42.748;23.278;2024-03-08T07:08:15;14.60;;;6.05;;
79202;SDS011;68630;42.748;23.278;2024-03-08T07:10:48;13.60;;;5.95;;
79202;SDS011;68630;42.748;23.278;2024-03-08T07:13:24;15.28;;;6.20;;
79202;SDS011;68630;42.748;23.278;2024-03-08T07:15:58;13.28;;;6.33;;
79202;SDS011;68630;42.748;23.278;2024-03-08T07:18:50;14.85;;;6.97;;
79202;SDS011;68630;42.748;23.278;2024-03-08T07:30:06;15.23;;;6.12;;
79202;SDS011;68630;42.748;23.278;2024-03-08T07:32:52;11.75;;;5.40;;
79202;SDS011;68630;42.748;23.278;2024-03-08T07:35:17;8.10;;;4.42;;
79202;SDS011;68630;42.748;23.278;2024-03-08T07:37:54;7.45;;;4.33;;
79202;SDS011;68630;42.748;23.278;2024-03-08T07:40:39;9.58;;;5.37;;
79202;SDS011;68630;42.748;23.278;2024-03-08T07:43:08;14.77;;;5.33;;
79202;SDS011;68630;42.748;23.278;2024-03-08T07:45:53;10.68;;;5.00;;
79202;SDS011;68630;42.748;23.278;2024-03-08T07:56:22;7.65;;;4.53;;
79202;SDS011;68630;42.748;23.278;2024-03-08T07:59:12;11.12;;;4.20;;
79202;SDS011;68630;42.748;23.278;2024-03-08T08:01:47;8.08;;;4.28;;
79202;SDS011;68630;42.748;23.278;2024-03-08T08:04:25;9.60;;;4.70;;
79202;SDS011;68630;42.748;23.278;2024-03-08T08:07:37;8.78;;;4.10;;
79202;SDS011;68630;42.748;23.278;2024-03-08T08:10:23;13.30;;;4.28;;
79202;SDS011;68630;42.748;23.278;2024-03-08T08:13:09;8.68;;;3.77;;
79202;SDS011;68630;42.748;23.278;2024-03-08T08:24:25;6.12;;;3.15;;
79202;SDS011;68630;42.748;23.278;2024-03-08T08:32:52;7.58;;;4.03;;
79202;SDS011;68630;42.748;23.278;2024-03-08T08:35:39;13.95;;;3.02;;
79202;SDS011;68630;42.748;23.278;2024-03-08T08:38:17;12.03;;;3.80;;
79202;SDS011;68630;42.748;23.278;2024-03-08T08:41:18;5.15;;;3.12;;
79202;SDS011;68630;42.748;23.278;2024-03-08T08:43:54;10.15;;;3.90;;
79202;SDS011;68630;42.748;23.278;2024-03-08T09:00:01;15.10;;;4.45;;
79202;SDS011;68630;42.748;23.278;2024-03-08T09:02:38;13.53;;;4.00;;
79202;SDS011;68630;42.748;23.278;2024-03-08T09:05:15;6.62;;;3.30;;
79202;SDS011;68630;42.748;23.278;2024-03-08T09:07:51;8.98;;;3.22;;
79202;SDS011;68630;42.748;23.278;2024-03-08T09:10:23;11.63;;;3.75;;
79202;SDS011;68630;42.748;23.278;2024-03-08T09:13:03;7.08;;;2.70;;
79202;SDS011;68630;42.748;23.278;2024-03-08T09:15:40;5.33;;;2.83;;
79202;SDS011;68630;42.748;23.278;2024-03-08T09:20:59;7.25;;;2.98;;
79202;SDS011;68630;42.748;23.278;2024-03-08T09:23:35;9.70;;;2.92;;
79202;SDS011;68630;42.748;23.278;2024-03-08T09:26:18;7.22;;;3.12;;
79202;SDS011;68630;42.748;23.278;2024-03-08T09:29:05;9.08;;;2.75;;
79202;SDS011;68630;42.748;23.278;2024-03-08T09:31:39;12.37;;;3.20;;
79202;SDS011;68630;42.748;23.278;2024-03-08T09:34:31;6.35;;;2.77;;
79202;SDS011;68630;42.748;23.278;2024-03-08T09:42:11;3.80;;;2.27;;
79202;SDS011;68630;42.748;23.278;2024-03-08T09:44:58;9.03;;;2.33;;
79202;SDS011;68630;42.748;23.278;2024-03-08T09:47:28;5.30;;;2.25;;
79202;SDS011;68630;42.748;23.278;2024-03-08T09:50:02;5.80;;;2.50;;
79202;SDS011;68630;42.748;23.278;2024-03-08T09:55:08;5.97;;;2.08;;
79202;SDS011;68630;42.748;23.278;2024-03-08T09:57:46;2.47;;;1.50;;
79202;SDS011;68630;42.748;23.278;2024-03-08T10:03:48;4.33;;;2.20;;
79202;SDS011;68630;42.748;23.278;2024-03-08T10:05:34;6.53;;;2.27;;
79202;SDS011;68630;42.748;23.278;2024-03-08T10:08:13;3.40;;;2.12;;
79202;SDS011;68630;42.748;23.278;2024-03-08T10:10:40;11.43;;;2.05;;
79202;SDS011;68630;42.748;23.278;2024-03-08T10:13:19;10.60;;;2.37;;
79202;SDS011;68630;42.748;23.278;2024-03-08T10:15:49;5.70;;;2.00;;
79202;SDS011;68630;42.748;23.278;2024-03-08T10:18:26;9.78;;;2.35;;
79202;SDS011;68630;42.748;23.278;2024-03-08T10:21:02;8.53;;;2.08;;
79202;SDS011;68630;42.748;23.278;2024-03-08T10:23:34;3.00;;;2.10;;
79202;SDS011;68630;42.748;23.278;2024-03-08T10:26:14;4.33;;;1.85;;
79202;SDS011;68630;42.748;23.278;2024-03-08T10:28:47;3.15;;;1.50;;
79202;SDS011;68630;42.748;23.278;2024-03-08T10:31:26;5.22;;;1.80;;
79202;SDS011;68630;42.748;23.278;2024-03-08T10:36:33;11.35;;;2.60;;
79202;SDS011;68630;42.748;23.278;2024-03-08T10:44:39;2.05;;;1.50;;
79202;SDS011;68630;42.748;23.278;2024-03-08T10:50:15;1.80;;;1.40;;
79202;SDS011;68630;42.748;23.278;2024-03-08T10:52:47;2.22;;;1.35;;
79202;SDS011;68630;42.748;23.278;2024-03-08T10:55:42;6.70;;;1.62;;
79202;SDS011;68630;42.748;23.278;2024-03-08T10:58:28;5.75;;;1.98;;
79202;SDS011;68630;42.748;23.278;2024-03-08T11:01:11;1.52;;;1.15;;
79202;SDS011;68630;42.748;23.278;2024-03-08T11:06:49;5.30;;;1.77;;
79202;SDS011;68630;42.748;23.278;2024-03-08T11:10:18;5.92;;;1.92;;
79202;SDS011;68630;42.748;23.278;2024-03-08T11:34:18;3.27;;;1.05;;
79202;SDS011;68630;42.748;23.278;2024-03-08T11:37:14;7.60;;;1.60;;
79202;SDS011;68630;42.748;23.278;2024-03-08T11:40:14;6.08;;;1.82;;
79202;SDS011;68630;42.748;23.278;2024-03-08T11:45:48;1.80;;;1.10;;
79202;SDS011;68630;42.748;23.278;2024-03-08T11:51:08;5.12;;;1.47;;
79202;SDS011;68630;42.748;23.278;2024-03-08T11:53:34;7.15;;;1.70;;
79202;SDS011;68630;42.748;23.278;2024-03-08T11:56:18;5.90;;;1.70;;
79202;SDS011;68630;42.748;23.278;2024-03-08T11:58:54;4.78;;;1.40;;
79202;SDS011;68630;42.748;23.278;2024-03-08T12:01:56;2.17;;;1.40;;
79202;SDS011;68630;42.748;23.278;2024-03-08T12:04:17;23.25;;;2.83;;
79202;SDS011;68630;42.748;23.278;2024-03-08T12:12:55;2.95;;;1.12;;
79202;SDS011;68630;42.748;23.278;2024-03-08T12:15:20;4.30;;;1.35;;
79202;SDS011;68630;42.748;23.278;2024-03-08T12:20:46;4.40;;;1.70;;
79202;SDS011;68630;42.748;23.278;2024-03-08T12:23:13;4.78;;;1.90;;
79202;SDS011;68630;42.748;23.278;2024-03-08T12:25:52;3.90;;;1.90;;
79202;SDS011;68630;42.748;23.278;2024-03-08T12:34:40;2.25;;;1.70;;
79202;SDS011;68630;42.748;23.278;2024-03-08T12:37:09;3.20;;;1.62;;
79202;SDS011;68630;42.748;23.278;2024-03-08T12:39:40;5.62;;;1.77;;
79202;SDS011;68630;42.748;23.278;2024-03-08T12:42:19;2.08;;;1.60;;
79202;SDS011;68630;42.748;23.278;2024-03-08T12:44:50;3.75;;;2.10;;
79202;SDS011;68630;42.748;23.278;2024-03-08T12:56:49;6.55;;;1.70;;
79202;SDS011;68630;42.748;23.278;2024-03-08T12:59:19;8.58;;;1.90;;
79202;SDS011;68630;42.748;23.278;2024-03-08T13:01:47;6.92;;;2.08;;
79202;SDS011;68630;42.748;23.278;2024-03-08T13:04:28;5.33;;;1.70;;
79202;SDS011;68630;42.748;23.278;2024-03-08T13:06:57;2.77;;;1.55;;
79202;SDS011;68630;42.748;23.278;2024-03-08T13:12:49;3.27;;;1.60;;
79202;SDS011;68630;42.748;23.278;2024-03-08T13:15:24;6.40;;;2.10;;
79202;SDS011;68630;42.748;23.278;2024-03-08T13:17:59;10.08;;;2.20;;
79202;SDS011;68630;42.748;23.278;2024-03-08T13:20:28;2.37;;;1.60;;
79202;SDS011;68630;42.748;23.278;2024-03-08T13:29:03;3.22;;;1.70;;
79202;SDS011;68630;42.748;23.278;2024-03-08T13:34:11;3.90;;;1.67;;
79202;SDS011;68630;42.748;23.278;2024-03-08T13:36:42;6.12;;;2.00;;
79202;SDS011;68630;42.748;23.278;2024-03-08T13:39:21;7.05;;;2.17;;
79202;SDS011;68630;42.748;23.278;2024-03-08T13:45:11;3.58;;;1.62;;
79202;SDS011;68630;42.748;23.278;2024-03-08T13:47:40;2.98;;;1.65;;
79202;SDS011;68630;42.748;23.278;2024-03-08T13:50:23;3.62;;;1.67;;
79202;SDS011;68630;42.748;23.278;2024-03-08T13:52:55;2.25;;;1.50;;
79202;SDS011;68630;42.748;23.278;2024-03-08T13:55:26;6.20;;;1.65;;
79202;SDS011;68630;42.748;23.278;2024-03-08T13:58:06;1.98;;;1.50;;
79202;SDS011;68630;42.748;23.278;2024-03-08T14:00:28;8.40;;;1.70;;
79202;SDS011;68630;42.748;23.278;2024-03-08T14:02:57;6.80;;;1.70;;
79202;SDS011;68630;42.748;23.278;2024-03-08T14:05:30;2.52;;;1.70;;
79202;SDS011;68630;42.748;23.278;2024-03-08T14:08:03;4.70;;;1.80;;
79202;SDS011;68630;42.748;23.278;2024-03-08T14:10:35;2.90;;;1.72;;
79202;SDS011;68630;42.748;23.278;2024-03-08T14:13:09;9.20;;;2.37;;
79202;SDS011;68630;42.748;23.278;2024-03-08T14:15:39;2.75;;;1.72;;
79202;SDS011;68630;42.748;23.278;2024-03-08T14:18:10;2.70;;;1.92;;
79202;SDS011;68630;42.748;23.278;2024-03-08T14:20:39;3.60;;;1.80;;
79202;SDS011;68630;42.748;23.278;2024-03-08T14:23:09;7.90;;;2.15;;
79202;SDS011;68630;42.748;23.278;2024-03-08T14:25:39;7.78;;;2.60;;
79202;SDS011;68630;42.748;23.278;2024-03-08T14:28:15;12.88;;;2.98;;
79202;SDS011;68630;42.748;23.278;2024-03-08T14:30:45;6.83;;;2.60;;
79202;SDS011;68630;42.748;23.278;2024-03-08T14:33:13;4.25;;;1.72;;
79202;SDS011;68630;42.748;23.278;2024-03-08T14:35:45;6.12;;;2.50;;
79202;SDS011;68630;42.748;23.278;2024-03-08T14:38:15;6.35;;;2.62;;
79202;SDS011;68630;42.748;23.278;2024-03-08T14:40:43;9.78;;;2.42;;
79202;SDS011;68630;42.748;23.278;2024-03-08T14:49:54;7.15;;;2.77;;
79202;SDS011;68630;42.748;23.278;2024-03-08T14:52:09;7.78;;;2.55;;
79202;SDS011;68630;42.748;23.278;2024-03-08T14:54:54;4.65;;;2.20;;
79202;SDS011;68630;42.748;23.278;2024-03-08T14:57:24;4.55;;;2.80;;
79202;SDS011;68630;42.748;23.278;2024-03-08T15:00:01;6.08;;;2.55;;
79202;SDS011;68630;42.748;23.278;2024-03-08T15:02:27;5.00;;;2.33;;
79202;SDS011;68630;42.748;23.278;2024-03-08T15:04:57;3.60;;;2.55;;
79202;SDS011;68630;42.748;23.278;2024-03-08T15:07:28;9.30;;;2.30;;
79202;SDS011;68630;42.748;23.278;2024-03-08T15:09:56;3.98;;;2.40;;
79202;SDS011;68630;42.748;23.278;2024-03-08T15:12:29;5.17;;;2.58;;
79202;SDS011;68630;42.748;23.278;2024-03-08T15:14:56;6.60;;;2.70;;
79202;SDS011;68630;42.748;23.278;2024-03-08T15:17:24;4.10;;;2.27;;
79202;SDS011;68630;42.748;23.278;2024-03-08T15:19:51;3.77;;;2.70;;
79202;SDS011;68630;42.748;23.278;2024-03-08T15:22:19;19.55;;;2.92;;
79202;SDS011;68630;42.748;23.278;2024-03-08T15:24:47;6.55;;;2.60;;
79202;SDS011;68630;42.748;23.278;2024-03-08T15:27:14;4.42;;;2.83;;
79202;SDS011;68630;42.748;23.278;2024-03-08T15:29:41;5.20;;;3.12;;
79202;SDS011;68630;42.748;23.278;2024-03-08T15:32:11;6.35;;;3.10;;
79202;SDS011;68630;42.748;23.278;2024-03-08T15:34:42;8.13;;;3.33;;
79202;SDS011;68630;42.748;23.278;2024-03-08T15:37:14;5.12;;;2.70;;
79202;SDS011;68630;42.748;23.278;2024-03-08T15:39:40;4.70;;;3.02;;
79202;SDS011;68630;42.748;23.278;2024-03-08T15:42:08;6.67;;;3.42;;
79202;SDS011;68630;42.748;23.278;2024-03-08T15:44:42;13.25;;;4.20;;
79202;SDS011;68630;42.748;23.278;2024-03-08T15:47:22;12.37;;;4.08;;
79202;SDS011;68630;42.748;23.278;2024-03-08T15:49:43;9.73;;;4.28;;
79202;SDS011;68630;42.748;23.278;2024-03-08T15:52:12;7.58;;;4.10;;
79202;SDS011;68630;42.748;23.278;2024-03-08T16:01:24;15.25;;;4.72;;
79202;SDS011;68630;42.748;23.278;2024-03-08T16:03:55;8.15;;;4.83;;
79202;SDS011;68630;42.748;23.278;2024-03-08T16:06:44;7.60;;;4.40;;
79202;SDS011;68630;42.748;23.278;2024-03-08T16:09:13;10.80;;;6.28;;
79202;SDS011;68630;42.748;23.278;2024-03-08T16:11:44;16.23;;;6.10;;
79202;SDS011;68630;42.748;23.278;2024-03-08T16:14:16;22.80;;;6.90;;
79202;SDS011;68630;42.748;23.278;2024-03-08T16:16:47;19.87;;;6.30;;
79202;SDS011;68630;42.748;23.278;2024-03-08T16:19:24;13.70;;;6.28;;
79202;SDS011;68630;42.748;23.278;2024-03-08T16:22:00;11.18;;;5.72;;
79202;SDS011;68630;42.748;23.278;2024-03-08T16:24:37;12.40;;;6.30;;
79202;SDS011;68630;42.748;23.278;2024-03-08T16:27:14;12.93;;;6.10;;
79202;SDS011;68630;42.748;23.278;2024-03-08T16:29:46;10.55;;;5.45;;
79202;SDS011;68630;42.748;23.278;2024-03-08T16:32:18;16.95;;;6.60;;
79202;SDS011;68630;42.748;23.278;2024-03-08T16:34:47;15.90;;;7.35;;
79202;SDS011;68630;42.748;23.278;2024-03-08T16:37:20;15.18;;;8.10;;
79202;SDS011;68630;42.748;23.278;2024-03-08T16:39:53;18.02;;;7.80;;
79202;SDS011;68630;42.748;23.278;2024-03-08T16:42:27;26.30;;;8.60;;
79202;SDS011;68630;42.748;23.278;2024-03-08T16:45:00;13.72;;;7.67;;
79202;SDS011;68630;42.748;23.278;2024-03-08T16:47:35;14.25;;;7.58;;
79202;SDS011;68630;42.748;23.278;2024-03-08T16:50:05;23.55;;;7.67;;
79202;SDS011;68630;42.748;23.278;2024-03-08T16:52:38;18.10;;;7.95;;
79202;SDS011;68630;42.748;23.278;2024-03-08T16:55:07;18.35;;;8.38;;
79202;SDS011;68630;42.748;23.278;2024-03-08T16:57:40;17.48;;;7.00;;
79202;SDS011;68630;42.748;23.278;2024-03-08T17:00:15;24.12;;;7.60;;
79202;SDS011;68630;42.748;23.278;2024-03-08T17:03:03;17.95;;;7.83;;
79202;SDS011;68630;42.748;23.278;2024-03-08T17:05:31;18.57;;;6.97;;
79202;SDS011;68630;42.748;23.278;2024-03-08T17:07:59;14.47;;;6.62;;
79202;SDS011;68630;42.748;23.278;2024-03-08T17:10:33;12.95;;;6.17;;
79202;SDS011;68630;42.748;23.278;2024-03-08T17:13:03;12.98;;;6.55;;
79202;SDS011;68630;42.748;23.278;2024-03-08T17:15:32;11.28;;;6.12;;
79202;SDS011;68630;42.748;23.278;2024-03-08T17:18:04;20.45;;;6.97;;
79202;SDS011;68630;42.748;23.278;2024-03-08T17:20:41;13.40;;;6.87;;
79202;SDS011;68630;42.748;23.278;2024-03-08T17:23:16;11.68;;;6.10;;
79202;SDS011;68630;42.748;23.278;2024-03-08T17:25:50;13.00;;;6.35;;
79202;SDS011;68630;42.748;23.278;2024-03-08T17:28:19;12.95;;;6.30;;
79202;SDS011;68630;42.748;23.278;2024-03-08T17:30:52;15.60;;;7.25;;
79202;SDS011;68630;42.748;23.278;2024-03-08T17:33:27;16.00;;;7.12;;
79202;SDS011;68630;42.748;23.278;2024-03-08T17:36:01;12.53;;;6.58;;
79202;SDS011;68630;42.748;23.278;2024-03-08T17:38:39;13.48;;;6.20;;
79202;SDS011;68630;42.748;23.278;2024-03-08T17:41:18;14.13;;;6.62;;
79202;SDS011;68630;42.748;23.278;2024-03-08T17:43:51;13.35;;;6.30;;
79202;SDS011;68630;42.748;23.278;2024-03-08T17:46:39;19.30;;;5.78;;
79202;SDS011;68630;42.748;23.278;2024-03-08T17:49:17;12.00;;;6.12;;
79202;SDS011;68630;42.748;23.278;2024-03-08T17:51:51;11.97;;;6.30;;
79202;SDS011;68630;42.748;23.278;2024-03-08T17:54:22;15.60;;;5.87;;
79202;SDS011;68630;42.748;23.278;2024-03-08T17:56:51;11.95;;;5.72;;
79202;SDS011;68630;42.748;23.278;2024-03-08T18:02:30;14.73;;;7.03;;
79202;SDS011;68630;42.748;23.278;2024-03-08T18:05:06;14.33;;;6.65;;
79202;SDS011;68630;42.748;23.278;2024-03-08T18:07:49;13.03;;;6.30;;